www.cux-wetter.de
Wetterdaten: Sonntag, 10.03.2013
Datum Zeit Temp. A. Feuchte A. Luftdruck Regen Wind Richtung Richtung Sonnenschein Solar Taupunkt Windchill Windben
10.03.2013 00:00 -0,3 C 90 % 1002,5 hPa 0,0 l/m 0,0 km/h (0 Bft) O-SO 105 0 min 0 W/m -1,7 C -0,3 C 0,0 km/h (0 Bft)
10.03.2013 00:15 -0,4 C 90 % 1002,5 hPa 0,0 l/m 0,0 km/h (0 Bft) O 95 0 min 0 W/m -1,8 C -0,4 C 0,0 km/h (0 Bft)
10.03.2013 00:30 -0,5 C 90 % 1002,5 hPa 0,0 l/m 0,0 km/h (0 Bft) O-SO 115 0 min 0 W/m -1,9 C -0,5 C 0,0 km/h (0 Bft)
10.03.2013 00:45 -0,5 C 90 % 1002,5 hPa 0,0 l/m 0,0 km/h (0 Bft) O-SO 120 0 min 0 W/m -1,9 C -0,5 C 0,0 km/h (0 Bft)
10.03.2013 01:00 -0,5 C 90 % 1002,5 hPa 0,0 l/m 0,0 km/h (0 Bft) O 95 0 min 0 W/m -1,9 C -0,5 C 0,0 km/h (0 Bft)
10.03.2013 01:15 -0,6 C 90 % 1002,5 hPa 0,0 l/m 0,0 km/h (0 Bft) O 90 0 min 0 W/m -2,0 C -0,6 C 0,0 km/h (0 Bft)
10.03.2013 01:30 -0,6 C 90 % 1002,5 hPa 0,0 l/m 0,0 km/h (0 Bft) O 90 0 min 0 W/m -2,0 C -0,6 C 0,0 km/h (0 Bft)
10.03.2013 01:45 -0,6 C 90 % 1002,5 hPa 0,0 l/m 0,0 km/h (0 Bft) O 80 0 min 0 W/m -2,0 C -0,6 C 0,0 km/h (0 Bft)
10.03.2013 02:00 -0,6 C 90 % 1002,5 hPa 0,0 l/m 0,0 km/h (0 Bft) O 90 0 min 0 W/m -2,0 C -0,6 C 0,0 km/h (0 Bft)
10.03.2013 02:15 -0,6 C 90 % 1002,5 hPa 0,0 l/m 0,0 km/h (0 Bft) O 95 0 min 0 W/m -2,0 C -0,6 C 0,0 km/h (0 Bft)
10.03.2013 02:30 -0,6 C 90 % 1002,5 hPa 0,0 l/m 0,0 km/h (0 Bft) O 100 0 min 0 W/m -2,0 C -0,6 C 0,0 km/h (0 Bft)
10.03.2013 02:45 -0,7 C 90 % 1002,5 hPa 0,0 l/m 0,0 km/h (0 Bft) O 95 0 min 0 W/m -2,1 C -0,7 C 0,0 km/h (0 Bft)
10.03.2013 03:00 -0,8 C 90 % 1002,5 hPa 0,0 l/m 0,0 km/h (0 Bft) O 100 0 min 0 W/m -2,2 C -0,8 C 0,0 km/h (0 Bft)
10.03.2013 03:15 -0,9 C 90 % 1002,5 hPa 0,0 l/m 0,0 km/h (0 Bft) O-SO 110 0 min 0 W/m -2,3 C -0,9 C 0,0 km/h (0 Bft)
10.03.2013 03:30 -1,0 C 89 % 1002,5 hPa 0,0 l/m 0,0 km/h (0 Bft) O 80 0 min 0 W/m -2,6 C -1,0 C 0,0 km/h (0 Bft)
10.03.2013 03:45 -1,0 C 89 % 1002,5 hPa 0,0 l/m 0,0 km/h (0 Bft) O 95 0 min 0 W/m -2,6 C -1,0 C 0,0 km/h (0 Bft)
10.03.2013 04:00 -1,0 C 89 % 1002,5 hPa 0,0 l/m 0,0 km/h (0 Bft) O 100 0 min 0 W/m -2,6 C -1,0 C 0,0 km/h (0 Bft)
10.03.2013 04:15 -1,0 C 89 % 1002,5 hPa 0,0 l/m 0,0 km/h (0 Bft) O-NO 65 0 min 0 W/m -2,6 C -1,0 C 0,0 km/h (0 Bft)
10.03.2013 04:30 -1,0 C 89 % 1002,5 hPa 0,0 l/m 0,0 km/h (0 Bft) O 90 0 min 0 W/m -2,6 C -1,0 C 0,0 km/h (0 Bft)
10.03.2013 04:45 -1,1 C 89 % 1002,5 hPa 0,0 l/m 0,0 km/h (0 Bft) O 90 0 min 0 W/m -2,7 C -1,1 C 0,0 km/h (0 Bft)
10.03.2013 05:00 -1,2 C 89 % 1002,5 hPa 0,0 l/m 0,0 km/h (0 Bft) O 80 0 min 0 W/m -2,8 C -1,2 C 0,0 km/h (0 Bft)
10.03.2013 05:15 -1,2 C 89 % 1002,5 hPa 0,0 l/m 0,0 km/h (0 Bft) O 80 0 min 0 W/m -2,8 C -1,2 C 0,0 km/h (0 Bft)
10.03.2013 05:30 -1,2 C 89 % 1002,5 hPa 0,0 l/m 0,0 km/h (0 Bft) O 90 0 min 0 W/m -2,8 C -1,2 C 0,0 km/h (0 Bft)
10.03.2013 05:45 -1,2 C 89 % 1002,5 hPa 0,0 l/m 0,0 km/h (0 Bft) O 100 0 min 0 W/m -2,8 C -1,2 C 0,0 km/h (0 Bft)
10.03.2013 06:00 -1,2 C 88 % 1002,5 hPa 0,0 l/m 0,0 km/h (0 Bft) O 80 0 min 0 W/m -2,9 C -1,2 C 0,0 km/h (0 Bft)
10.03.2013 06:15 -1,0 C 88 % 1002,5 hPa 0,0 l/m 0,0 km/h (0 Bft) O 100 0 min 0 W/m -2,7 C -1,0 C 0,0 km/h (0 Bft)
10.03.2013 06:30 -1,0 C 88 % 1002,5 hPa 0,0 l/m 0,0 km/h (0 Bft) O 80 0 min 0 W/m -2,7 C -1,0 C 0,0 km/h (0 Bft)
10.03.2013 06:45 -1,0 C 88 % 1002,5 hPa 0,0 l/m 0,0 km/h (0 Bft) O 85 0 min 0 W/m -2,7 C -1,0 C 0,0 km/h (0 Bft)
10.03.2013 07:00 -1,0 C 87 % 1002,5 hPa 0,0 l/m 0,0 km/h (0 Bft) O 90 0 min 0 W/m -2,9 C -1,0 C 0,0 km/h (0 Bft)
10.03.2013 07:15 -1,0 C 87 % 1003,5 hPa 0,0 l/m 0,0 km/h (0 Bft) O 85 0 min 0 W/m -2,9 C -1,0 C 0,0 km/h (0 Bft)
10.03.2013 07:30 -1,0 C 86 % 1003,5 hPa 0,0 l/m 0,0 km/h (0 Bft) O 90 0 min 0 W/m -3,0 C -1,0 C 0,0 km/h (0 Bft)
10.03.2013 07:45 -0,9 C 86 % 1003,5 hPa 0,0 l/m 0,0 km/h (0 Bft) O 85 0 min 0 W/m -2,9 C -0,9 C 0,0 km/h (0 Bft)
10.03.2013 08:00 -0,9 C 86 % 1003,5 hPa 0,0 l/m 0,0 km/h (0 Bft) O 80 0 min 0 W/m -2,9 C -0,9 C 0,0 km/h (0 Bft)
10.03.2013 08:15 -1,0 C 86 % 1003,5 hPa 0,0 l/m 0,0 km/h (0 Bft) O 85 0 min 0 W/m -3,0 C -1,0 C 0,0 km/h (0 Bft)
10.03.2013 08:30 -0,9 C 86 % 1003,5 hPa 0,0 l/m 0,0 km/h (0 Bft) O-NO 75 0 min 0 W/m -2,9 C -0,9 C 0,0 km/h (0 Bft)
10.03.2013 08:45 -0,9 C 86 % 1003,5 hPa 0,0 l/m 0,0 km/h (0 Bft) O 100 0 min 0 W/m -2,9 C -0,9 C 0,0 km/h (0 Bft)
10.03.2013 09:00 -0,9 C 86 % 1003,5 hPa 0,0 l/m 0,0 km/h (0 Bft) O-NO 75 0 min 0 W/m -2,9 C -0,9 C 0,0 km/h (0 Bft)
10.03.2013 09:15 -0,9 C 86 % 1003,5 hPa 0,0 l/m 0,0 km/h (0 Bft) O 100 0 min 0 W/m -2,9 C -0,9 C 0,0 km/h (0 Bft)
10.03.2013 09:30 -0,9 C 85 % 1003,5 hPa 0,0 l/m 0,0 km/h (0 Bft) O-NO 65 0 min 0 W/m -3,1 C -0,9 C 0,0 km/h (0 Bft)
10.03.2013 09:45 -0,7 C 85 % 1003,5 hPa 0,0 l/m 0,0 km/h (0 Bft) O 80 0 min 0 W/m -2,9 C -0,7 C 0,0 km/h (0 Bft)
10.03.2013 09:59 -0,6 C 84 % 1004,5 hPa 0,0 l/m 0,0 km/h (0 Bft) O-SO 105 0 min 0 W/m -3,0 C -0,6 C 0,0 km/h (0 Bft)
10.03.2013 10:15 -0,5 C 82 % 1004,5 hPa 0,0 l/m 0,0 km/h (0 Bft) O-SO 105 0 min 0 W/m -3,2 C -0,5 C 0,0 km/h (0 Bft)
10.03.2013 10:30 -0,3 C 82 % 1004,5 hPa 0,0 l/m 0,0 km/h (0 Bft) O-SO 110 0 min 0 W/m -3,0 C -0,3 C 0,0 km/h (0 Bft)
10.03.2013 10:45 -0,4 C 81 % 1004,5 hPa 0,0 l/m 0,0 km/h (0 Bft) O-SO 110 0 min 0 W/m -3,3 C -0,4 C 0,0 km/h (0 Bft)
10.03.2013 10:59 -0,4 C 81 % 1004,5 hPa 0,0 l/m 0,0 km/h (0 Bft) O-SO 105 0 min 0 W/m -3,3 C -0,4 C 0,0 km/h (0 Bft)
10.03.2013 11:15 0,0 C 81 % 1004,5 hPa 0,0 l/m 0,0 km/h (0 Bft) O-SO 115 0 min 0 W/m -2,9 C 0,0 C 0,0 km/h (0 Bft)
10.03.2013 11:30 0,2 C 80 % 1004,5 hPa 0,0 l/m 0,0 km/h (0 Bft) O 95 0 min 0 W/m -2,8 C 0,2 C 0,0 km/h (0 Bft)
10.03.2013 11:44 0,5 C 79 % 1004,5 hPa 0,0 l/m 0,0 km/h (0 Bft) O 95 0 min 0 W/m -2,7 C 0,5 C 0,0 km/h (0 Bft)
10.03.2013 12:00 0,3 C 79 % 1004,5 hPa 0,0 l/m 0,0 km/h (0 Bft) O 100 0 min 0 W/m -2,9 C 0,3 C 0,0 km/h (0 Bft)
10.03.2013 12:15 0,7 C 78 % 1004,5 hPa 0,0 l/m 0,0 km/h (0 Bft) O 90 0 min 0 W/m -2,7 C 0,7 C 0,0 km/h (0 Bft)
10.03.2013 12:29 0,5 C 79 % 1004,5 hPa 0,0 l/m 0,0 km/h (0 Bft) O 95 0 min 0 W/m -2,7 C 0,5 C 0,0 km/h (0 Bft)
10.03.2013 12:45 0,5 C 78 % 1004,5 hPa 0,0 l/m 0,0 km/h (0 Bft) O-SO 105 0 min 0 W/m -2,9 C 0,5 C 0,0 km/h (0 Bft)
10.03.2013 13:00 0,8 C 77 % 1004,5 hPa 0,0 l/m 20,0 km/h (4 Bft) O 100 0 min 0 W/m -2,8 C -8,6 C 20,0 km/h (4 Bft)
10.03.2013 13:14 0,3 C 77 % 1004,5 hPa 0,0 l/m 25,0 km/h (4 Bft) O-SO 105 0 min 0 W/m -3,2 C -11,3 C 25,0 km/h (4 Bft)
10.03.2013 13:29 0,3 C 78 % 1004,5 hPa 0,0 l/m 24,0 km/h (4 Bft) SO 140 0 min 0 W/m -3,1 C -10,9 C 24,0 km/h (4 Bft)
10.03.2013 13:45 0,1 C 76 % 1004,5 hPa 0,0 l/m 28,0 km/h (5 Bft) O 100 0 min 0 W/m -3,6 C -12,6 C 28,0 km/h (5 Bft)
10.03.2013 14:00 0,2 C 77 % 1004,5 hPa 0,0 l/m 22,6 km/h (4 Bft) O 100 0 min 0 W/m -3,3 C -10,5 C 22,6 km/h (4 Bft)
10.03.2013 14:14 0,3 C 78 % 1005,5 hPa 0,0 l/m 17,6 km/h (3 Bft) O 95 0 min 0 W/m -3,1 C -8,1 C 17,6 km/h (3 Bft)
10.03.2013 14:30 -0,2 C 79 % 1005,5 hPa 0,0 l/m 18,8 km/h (3 Bft) O-SO 115 0 min 0 W/m -3,4 C -9,3 C 18,8 km/h (3 Bft)
10.03.2013 14:45 -0,3 C 79 % 1005,5 hPa 0,0 l/m 22,6 km/h (4 Bft) O 95 0 min 0 W/m -3,5 C -11,2 C 22,6 km/h (4 Bft)
10.03.2013 15:00 -0,6 C 82 % 1005,5 hPa 0,0 l/m 28,5 km/h (5 Bft) O-SO 105 0 min 0 W/m -3,3 C -13,8 C 28,5 km/h (5 Bft)
10.03.2013 15:14 -0,7 C 82 % 1005,5 hPa 0,0 l/m 28,3 km/h (5 Bft) O 95 0 min 0 W/m -3,4 C -13,8 C 28,3 km/h (5 Bft)
10.03.2013 15:30 -1,0 C 83 % 1005,5 hPa 0,0 l/m 24,3 km/h (4 Bft) O-SO 120 0 min 0 W/m -3,5 C -12,8 C 24,3 km/h (4 Bft)
10.03.2013 15:45 -0,9 C 83 % 1005,5 hPa 0,0 l/m 21,6 km/h (4 Bft) O 90 0 min 0 W/m -3,4 C -11,5 C 21,6 km/h (4 Bft)
10.03.2013 16:00 -1,0 C 83 % 1005,5 hPa 0,0 l/m 25,6 km/h (4 Bft) O 85 0 min 0 W/m -3,5 C -13,3 C 25,6 km/h (4 Bft)
10.03.2013 16:14 -1,0 C 83 % 1005,5 hPa 0,0 l/m 26,8 km/h (4 Bft) O-SO 105 0 min 0 W/m -3,5 C -13,7 C 26,8 km/h (4 Bft)
10.03.2013 16:30 -1,0 C 82 % 1006,5 hPa 0,0 l/m 25,5 km/h (4 Bft) O-SO 115 0 min 0 W/m -3,7 C -13,3 C 25,5 km/h (4 Bft)
10.03.2013 16:45 -1,1 C 81 % 1006,5 hPa 0,0 l/m 20,8 km/h (4 Bft) O-SO 105 0 min 0 W/m -3,9 C -11,4 C 20,8 km/h (4 Bft)
10.03.2013 17:00 -1,1 C 81 % 1006,5 hPa 0,0 l/m 25,7 km/h (4 Bft) O-SO 115 0 min 0 W/m -3,9 C -13,5 C 25,7 km/h (4 Bft)
10.03.2013 17:15 -1,3 C 81 % 1006,5 hPa 0,0 l/m 25,8 km/h (4 Bft) O 100 0 min 0 W/m -4,1 C -13,8 C 25,8 km/h (4 Bft)
10.03.2013 17:30 -1,4 C 81 % 1006,5 hPa 0,0 l/m 27,3 km/h (5 Bft) O-SO 105 0 min 0 W/m -4,2 C -14,5 C 27,3 km/h (5 Bft)
10.03.2013 17:45 -1,4 C 81 % 1006,5 hPa 0,0 l/m 26,7 km/h (4 Bft) O-SO 115 0 min 0 W/m -4,2 C -14,3 C 26,7 km/h (4 Bft)
10.03.2013 18:00 -1,6 C 81 % 1006,5 hPa 0,0 l/m 20,1 km/h (4 Bft) O-SO 110 0 min 0 W/m -4,4 C -11,7 C 20,1 km/h (4 Bft)
10.03.2013 18:15 -1,7 C 81 % 1007,5 hPa 0,0 l/m 27,6 km/h (5 Bft) O-SO 105 0 min 0 W/m -4,5 C -15,0 C 27,6 km/h (5 Bft)
10.03.2013 18:30 -1,8 C 82 % 1007,5 hPa 0,0 l/m 22,1 km/h (4 Bft) O-SO 105 0 min 0 W/m -4,5 C -12,9 C 22,1 km/h (4 Bft)
10.03.2013 18:45 -1,8 C 83 % 1007,5 hPa 0,0 l/m 21,5 km/h (4 Bft) O-SO 105 0 min 0 W/m -4,3 C -12,7 C 21,5 km/h (4 Bft)
10.03.2013 19:00 -1,9 C 83 % 1007,5 hPa 0,0 l/m 23,8 km/h (4 Bft) O-SO 105 0 min 0 W/m -4,4 C -13,8 C 23,8 km/h (4 Bft)
10.03.2013 19:15 -2,0 C 83 % 1007,5 hPa 0,0 l/m 24,9 km/h (4 Bft) O 85 0 min 0 W/m -4,5 C -14,4 C 24,9 km/h (4 Bft)
10.03.2013 19:30 -2,0 C 83 % 1007,5 hPa 0,0 l/m 31,2 km/h (5 Bft) O-SO 115 0 min 0 W/m -4,5 C -16,6 C 31,2 km/h (5 Bft)
10.03.2013 19:45 -2,1 C 83 % 1007,5 hPa 0,0 l/m 25,3 km/h (4 Bft) O 100 0 min 0 W/m -4,6 C -14,7 C 25,3 km/h (4 Bft)
10.03.2013 20:00 -2,2 C 83 % 1007,5 hPa 0,0 l/m 29,6 km/h (5 Bft) O 95 0 min 0 W/m -4,7 C -16,4 C 29,6 km/h (5 Bft)
10.03.2013 20:15 -2,2 C 82 % 1008,5 hPa 0,0 l/m 31,1 km/h (5 Bft) O 100 0 min 0 W/m -4,8 C -16,8 C 31,1 km/h (5 Bft)
10.03.2013 20:30 -2,2 C 82 % 1007,5 hPa 0,0 l/m 24,5 km/h (4 Bft) O 95 0 min 0 W/m -4,8 C -14,5 C 24,5 km/h (4 Bft)
10.03.2013 20:45 -2,2 C 82 % 1008,5 hPa 0,0 l/m 22,3 km/h (4 Bft) O 100 0 min 0 W/m -4,8 C -13,6 C 22,3 km/h (4 Bft)
10.03.2013 21:00 -2,2 C 83 % 1008,5 hPa 0,0 l/m 26,1 km/h (4 Bft) O-SO 105 0 min 0 W/m -4,7 C -15,1 C 26,1 km/h (4 Bft)
10.03.2013 21:15 -2,3 C 84 % 1008,5 hPa 0,0 l/m 19,3 km/h (3 Bft) O-NO 75 0 min 0 W/m -4,6 C -12,2 C 19,3 km/h (3 Bft)
10.03.2013 21:30 -2,3 C 84 % 1008,5 hPa 0,0 l/m 19,8 km/h (3 Bft) O 85 0 min 0 W/m -4,6 C -12,5 C 19,8 km/h (3 Bft)
10.03.2013 21:45 -2,4 C 84 % 1008,5 hPa 0,0 l/m 22,4 km/h (4 Bft) O 95 0 min 0 W/m -4,7 C -13,9 C 22,4 km/h (4 Bft)
10.03.2013 22:00 -2,4 C 84 % 1008,5 hPa 0,0 l/m 21,7 km/h (4 Bft) O 95 0 min 0 W/m -4,7 C -13,6 C 21,7 km/h (4 Bft)
10.03.2013 22:15 -2,5 C 85 % 1008,5 hPa 0,0 l/m 25,8 km/h (4 Bft) O-SO 105 0 min 0 W/m -4,7 C -15,4 C 25,8 km/h (4 Bft)
10.03.2013 22:30 -2,5 C 85 % 1008,5 hPa 0,0 l/m 28,1 km/h (5 Bft) O-SO 105 0 min 0 W/m -4,7 C -16,3 C 28,1 km/h (5 Bft)
10.03.2013 22:45 -2,5 C 85 % 1008,5 hPa 0,0 l/m 18,0 km/h (3 Bft) O 100 0 min 0 W/m -4,7 C -11,8 C 18,0 km/h (3 Bft)
10.03.2013 23:00 -2,6 C 85 % 1008,5 hPa 0,0 l/m 41,1 km/h (6 Bft) O 100 0 min 0 W/m -4,8 C -20,0 C 41,1 km/h (6 Bft)
10.03.2013 23:15 -2,6 C 85 % 1008,5 hPa 0,0 l/m 22,8 km/h (4 Bft) O-SO 110 0 min 0 W/m -4,8 C -14,3 C 22,8 km/h (4 Bft)
10.03.2013 23:30 -2,6 C 85 % 1008,5 hPa 0,0 l/m 24,3 km/h (4 Bft) O 80 0 min 0 W/m -4,8 C -15,0 C 24,3 km/h (4 Bft)
10.03.2013 23:45 -2,7 C 86 % 1008,5 hPa 0,0 l/m 22,3 km/h (4 Bft) O-SO 105 0 min 0 W/m -4,7 C -14,2 C 22,3 km/h (4 Bft)
_ Min-Zeit 23:45 13:45 00:00 - 00:00 - - - - 20:15 23:00 00:00
Minimum _ -2,7 C 76 % 1002,5 hPa - 0,0 km/h (0 Bft) - - - - -4,8 C -20,0 C 0,0 km/h (0 Bft)
_ Max-Zeit 13:00 00:00 20:15 00:00 23:00 - - 00:00 00:00 00:00 12:15 23:00
Maximum _ 0,8 C 90 % 1008,5 hPa 0,0 l/m 41,1 km/h
O (6 Bft)
- - 0 min 0 W/m -1,7 C 0,7 C 41,1 km/h
O-SO (6 Bft)
Durchschnitt _ -1,0 C 84 % 1004,9 hPa #0,0 l/m 11,4 km/h (2 Bft) O - #0 min. 0 W/m -3,3 C -6,5 C 11,4 km/h (2 Bft)
copyright by Holger Just